MV Magnolia — WDH4902 — position and weather

sailwx.info

Track history (hours):
 
Tides and Currents Weather Stations Pressure Air Temp Water Temp Dewpoint Dewpoint Depression Visibility Wind Speed Wind Dir Waves Ship Positions

MV Magnolia

Owner: MV Magnolia, LLC, destrehan, LA. More information available from US FCC via Universal Licensing System and Coast Guard Vessel Documentation Center.

Last reported at 2017-Oct-19 14:31 UTC. Time now 2017-Oct-20 12:23 UTC.
Position N 29°51' W 093°57'.

Length 21 m; draft 2.6 m.

Type: Towing. MMSI: 367622520.

Date/timePositionNaut miles runAvg speedWind from/ knotsBaromVisibWave heightAir tempDewpointWater temp
2017-Oct-19 14:31N 29°51' W 093°57'1 6.8
2017-Oct-19 14:22N 29°50' W 093°57'29 6.1
2017-Oct-19 09:39N 29°35' W 094°25'2 5.9
2017-Oct-19 09:17N 29°34' W 094°27'9 6.6
2017-Oct-19 07:54N 29°29' W 094°36'2 5.8
2017-Oct-19 07:30N 29°28' W 094°39'12 3.9
2017-Oct-19 04:28N 29°30' W 094°52'3 7.4
2017-Oct-19 04:00N 29°33' W 094°54'4 7.4
2017-Oct-19 03:30N 29°36' W 094°57'4 7.4
2017-Oct-19 03:00N 29°39' W 094°58'4 7.1
2017-Oct-19 02:31N 29°42' W 095°01'3 6.6
2017-Oct-19 02:00N 29°44' W 095°03'3 5.0
2017-Oct-19 01:24N 29°46' W 095°06'0 0.4
2017-Oct-19 00:18N 29°46' W 095°06'2 5.2
2017-Oct-18 23:59N 29°45' W 095°04'3 6.8
2017-Oct-18 23:30N 29°43' W 095°01'3 7.0
2017-Oct-18 23:00N 29°40' W 094°59'4 7.5
2017-Oct-18 22:30N 29°37' W 094°57'4 7.4
2017-Oct-18 22:00N 29°34' W 094°55'4 7.4
2017-Oct-18 21:30N 29°31' W 094°53'4 7.9
2017-Oct-18 20:58N 29°27' W 094°50'56 5.3
2017-Oct-18 10:30N 29°54' W 093°54'4 6.0
2017-Oct-18 09:52N 29°57' W 093°52'11 4.0
2017-Oct-18 07:08N 30°04' W 093°42'1 7.1
2017-Oct-18 07:00N 30°04' W 093°41'3 6.3
2017-Oct-18 06:30N 30°04' W 093°37'3 6.5
2017-Oct-18 06:00N 30°04' W 093°33'3 6.4
2017-Oct-18 05:30N 30°04' W 093°29'3 6.4
2017-Oct-18 05:01N 30°04' W 093°26'3 6.0
2017-Oct-18 04:30N 30°04' W 093°22'0 1.0
2017-Oct-18 04:00N 30°04' W 093°22'2 4.6
2017-Oct-18 03:31N 30°04' W 093°24'4 7.2
2017-Oct-18 03:01N 30°04' W 093°28'4 7.2
2017-Oct-18 02:30N 30°04' W 093°33'4 7.4
2017-Oct-18 02:01N 30°04' W 093°37'3 6.8
2017-Oct-18 01:30N 30°04' W 093°41'70 1.4
2017-Oct-15 23:32N 29°30' W 094°52'0 7.5
2017-Oct-15 23:30N 29°30' W 094°52'4 7.2
2017-Oct-15 23:00N 29°33' W 094°54'3 7.0
2017-Oct-15 22:30N 29°36' W 094°57'3 6.7
2017-Oct-15 22:00N 29°39' W 094°58'3 6.8
2017-Oct-15 21:30N 29°42' W 094°60'3 5.9
2017-Oct-15 20:58N 29°44' W 095°02'3 6.2
2017-Oct-15 20:28N 29°46' W 095°05'0 0.1
2017-Oct-15 18:44N 29°46' W 095°05'1 1.3
2017-Oct-15 17:40N 29°45' W 095°06'1 0.6
2017-Oct-15 16:49N 29°46' W 095°05'1 0.4
2017-Oct-15 13:57N 29°46' W 095°04'2 4.7
2017-Oct-15 13:30N 29°44' W 095°03'2 4.6
2017-Oct-15 13:00N 29°42' W 095°01'3 5.5
2017-Oct-15 12:30N 29°40' W 094°59'3 6.1
2017-Oct-15 12:00N 29°38' W 094°58'3 5.9
2017-Oct-15 11:30N 29°35' W 094°56'3 6.2
2017-Oct-15 11:00N 29°32' W 094°54'3 6.6
2017-Oct-15 10:30N 29°30' W 094°52'60 3.0
2017-Oct-14 14:39N 29°58' W 093°51'0 0.1
2017-Oct-14 14:31N 29°58' W 093°51'1 2.1
2017-Oct-14 14:00N 29°59' W 093°50'3 5.3
2017-Oct-14 13:30N 29°60' W 093°47'2 2.5
2017-Oct-14 12:53N 30°01' W 093°46'0 0.0
2017-Oct-14 11:41N 30°01' W 093°46'0 0.0
2017-Oct-14 11:25N 30°01' W 093°46'0 0.0
2017-Oct-14 10:50N 30°01' W 093°46'0 0.0
2017-Oct-14 09:55N 30°01' W 093°46'0 0.0
2017-Oct-14 09:29N 30°01' W 093°46'3 1.6
2017-Oct-14 07:31N 30°03' W 093°43'0 4.9
2017-Oct-14 07:30N 30°03' W 093°43'2 4.7
2017-Oct-14 07:00N 30°04' W 093°40'2 4.5
2017-Oct-14 06:30N 30°04' W 093°38'2 4.5
2017-Oct-14 06:00N 30°04' W 093°35'2 4.3
2017-Oct-14 05:30N 30°04' W 093°33'2 4.1
2017-Oct-14 05:00N 30°04' W 093°30'2 3.8
2017-Oct-14 04:30N 30°04' W 093°28'2 4.2
2017-Oct-14 04:00N 30°04' W 093°26'2 4.2
2017-Oct-14 03:30N 30°04' W 093°23'2 3.2
2017-Oct-14 03:00N 30°04' W 093°21'0 0.0
2017-Oct-14 02:30N 30°04' W 093°21'1 2.6
2017-Oct-14 01:59N 30°05' W 093°20'1 2.1
2017-Oct-14 01:30N 30°04' W 093°21'1 1.0
2017-Oct-14 00:58N 30°04' W 093°22'0 0.3
2017-Oct-14 00:28N 30°04' W 093°22'1 3.2
2017-Oct-14 00:01N 30°04' W 093°24'3 6.5
2017-Oct-13 23:31N 30°04' W 093°27'3 6.5
2017-Oct-13 23:01N 30°04' W 093°31'3 6.4
2017-Oct-13 22:30N 30°04' W 093°35'3 6.2
2017-Oct-13 21:59N 30°04' W 093°38'66 4.3
2017-Oct-13 06:36N 29°27' W 094°41'1 5.4
2017-Oct-13 06:30N 29°27' W 094°42'4 5.3
2017-Oct-13 05:46N 29°24' W 094°45'1 5.7
2017-Oct-13 05:30N 29°23' W 094°46'2 1.8
2017-Oct-13 04:12N 29°24' W 094°49'7 4.4
2017-Oct-13 02:36N 29°30' W 094°52'1 5.1
2017-Oct-13 02:29N 29°30' W 094°53'3 5.2
2017-Oct-13 02:00N 29°32' W 094°54'3 5.1
2017-Oct-13 01:30N 29°35' W 094°56'3 5.3
2017-Oct-13 01:00N 29°37' W 094°57'3 5.8
2017-Oct-13 00:30N 29°40' W 094°58'3 5.9
2017-Oct-13 00:00N 29°42' W 095°00'3 5.0
2017-Oct-12 23:29N 29°44' W 095°03'3 5.0
2017-Oct-12 22:49N 29°47' W 095°05'0 0.4
2017-Oct-12 21:47N 29°47' W 095°04'0 0.2
2017-Oct-12 18:51N 29°47' W 095°04'1 0.9
2017-Oct-12 17:31N 29°46' W 095°05'1 2.8
2017-Oct-12 17:07N 29°46' W 095°05'1 4.2
2017-Oct-12 16:58N 29°46' W 095°05'1 2.1
2017-Oct-12 16:29N 29°47' W 095°05'0 0.1
2017-Oct-12 15:44N 29°47' W 095°04'0 0.2
2017-Oct-12 15:25N 29°47' W 095°04'0 0.1
2017-Oct-12 15:00N 29°47' W 095°04'1 2.2
2017-Oct-12 14:27N 29°46' W 095°04'2 4.5
2017-Oct-12 14:00N 29°44' W 095°03'2 4.0
2017-Oct-12 13:30N 29°43' W 095°01'2 4.1
2017-Oct-12 13:00N 29°42' W 094°59'2 4.7
2017-Oct-12 12:30N 29°39' W 094°58'3 5.1
2017-Oct-12 12:00N 29°37' W 094°57'2 4.9
2017-Oct-12 11:30N 29°35' W 094°56'2 5.0
2017-Oct-12 11:00N 29°33' W 094°54'3 5.1
2017-Oct-12 10:30N 29°31' W 094°53'73 2.1
2017-Oct-10 23:53N 30°04' W 093°38'2 5.6
2017-Oct-10 23:30N 30°04' W 093°40'71 5.3
2017-Oct-10 10:04N 29°30' W 094°52'0 7.5
2017-Oct-10 10:00N 29°30' W 094°52'4 7.4
2017-Oct-10 09:30N 29°33' W 094°55'4 7.2
2017-Oct-10 09:01N 29°36' W 094°57'4 7.4
2017-Oct-10 08:30N 29°40' W 094°58'4 7.0
2017-Oct-10 08:00N 29°42' W 095°01'4 6.9
2017-Oct-10 07:23N 29°46' W 095°04'1 0.5
2017-Oct-10 04:45N 29°47' W 095°04'1 3.6
2017-Oct-10 04:27N 29°46' W 095°05'3 6.0
2017-Oct-10 04:00N 29°44' W 095°03'3 5.7
2017-Oct-10 03:30N 29°42' W 095°00'3 6.7
2017-Oct-10 03:00N 29°39' W 094°58'3 6.5
2017-Oct-10 02:30N 29°36' W 094°57'3 7.0
2017-Oct-10 02:00N 29°33' W 094°55'4 7.2
2017-Oct-10 01:30N 29°30' W 094°52'  
Track history (hours):
 
Tides and Currents Weather Stations Pressure Air Temp Water Temp Dewpoint Dewpoint Depression Visibility Wind Speed Wind Dir Waves Ship Positions

MV Magnolia

Owner: MV Magnolia, LLC, destrehan, LA. More information available from US FCC via Universal Licensing System and Coast Guard Vessel Documentation Center.

Last reported at 2017-Oct-19 14:31 UTC. Time now 2017-Oct-20 12:23 UTC.
Position N 29°51' W 093°57'.

Length 21 m; draft 2.6 m.

Type: Towing. MMSI: 367622520.

Date/timePositionNaut miles runAvg speedWind from/ knotsBaromVisibWave heightAir tempDewpointWater temp
2017-Oct-19 14:31N 29°51' W 093°57'1 6.8
2017-Oct-19 14:22N 29°50' W 093°57'29 6.1
2017-Oct-19 09:39N 29°35' W 094°25'2 5.9
2017-Oct-19 09:17N 29°34' W 094°27'9 6.6
2017-Oct-19 07:54N 29°29' W 094°36'2 5.8
2017-Oct-19 07:30N 29°28' W 094°39'12 3.9
2017-Oct-19 04:28N 29°30' W 094°52'3 7.4
2017-Oct-19 04:00N 29°33' W 094°54'4 7.4
2017-Oct-19 03:30N 29°36' W 094°57'4 7.4
2017-Oct-19 03:00N 29°39' W 094°58'4 7.1
2017-Oct-19 02:31N 29°42' W 095°01'3 6.6
2017-Oct-19 02:00N 29°44' W 095°03'3 5.0
2017-Oct-19 01:24N 29°46' W 095°06'0 0.4
2017-Oct-19 00:18N 29°46' W 095°06'2 5.2
2017-Oct-18 23:59N 29°45' W 095°04'3 6.8
2017-Oct-18 23:30N 29°43' W 095°01'3 7.0
2017-Oct-18 23:00N 29°40' W 094°59'4 7.5
2017-Oct-18 22:30N 29°37' W 094°57'4 7.4
2017-Oct-18 22:00N 29°34' W 094°55'4 7.4
2017-Oct-18 21:30N 29°31' W 094°53'4 7.9
2017-Oct-18 20:58N 29°27' W 094°50'56 5.3
2017-Oct-18 10:30N 29°54' W 093°54'4 6.0
2017-Oct-18 09:52N 29°57' W 093°52'11 4.0
2017-Oct-18 07:08N 30°04' W 093°42'1 7.1
2017-Oct-18 07:00N 30°04' W 093°41'3 6.3
2017-Oct-18 06:30N 30°04' W 093°37'3 6.5
2017-Oct-18 06:00N 30°04' W 093°33'3 6.4
2017-Oct-18 05:30N 30°04' W 093°29'3 6.4
2017-Oct-18 05:01N 30°04' W 093°26'3 6.0
2017-Oct-18 04:30N 30°04' W 093°22'0 1.0
2017-Oct-18 04:00N 30°04' W 093°22'2 4.6
2017-Oct-18 03:31N 30°04' W 093°24'4 7.2
2017-Oct-18 03:01N 30°04' W 093°28'4 7.2
2017-Oct-18 02:30N 30°04' W 093°33'4 7.4
2017-Oct-18 02:01N 30°04' W 093°37'3 6.8
2017-Oct-18 01:30N 30°04' W 093°41'70 1.4
2017-Oct-15 23:32N 29°30' W 094°52'0 7.5
2017-Oct-15 23:30N 29°30' W 094°52'4 7.2
2017-Oct-15 23:00N 29°33' W 094°54'3 7.0
2017-Oct-15 22:30N 29°36' W 094°57'3 6.7
2017-Oct-15 22:00N 29°39' W 094°58'3 6.8
2017-Oct-15 21:30N 29°42' W 094°60'3 5.9
2017-Oct-15 20:58N 29°44' W 095°02'3 6.2
2017-Oct-15 20:28N 29°46' W 095°05'0 0.1
2017-Oct-15 18:44N 29°46' W 095°05'1 1.3
2017-Oct-15 17:40N 29°45' W 095°06'1 0.6
2017-Oct-15 16:49N 29°46' W 095°05'1 0.4
2017-Oct-15 13:57N 29°46' W 095°04'2 4.7
2017-Oct-15 13:30N 29°44' W 095°03'2 4.6
2017-Oct-15 13:00N 29°42' W 095°01'3 5.5
2017-Oct-15 12:30N 29°40' W 094°59'3 6.1
2017-Oct-15 12:00N 29°38' W 094°58'3 5.9
2017-Oct-15 11:30N 29°35' W 094°56'3 6.2
2017-Oct-15 11:00N 29°32' W 094°54'3 6.6
2017-Oct-15 10:30N 29°30' W 094°52'60 3.0
2017-Oct-14 14:39N 29°58' W 093°51'0 0.1
2017-Oct-14 14:31N 29°58' W 093°51'1 2.1
2017-Oct-14 14:00N 29°59' W 093°50'3 5.3
2017-Oct-14 13:30N 29°60' W 093°47'2 2.5
2017-Oct-14 12:53N 30°01' W 093°46'0 0.0
2017-Oct-14 11:41N 30°01' W 093°46'0 0.0
2017-Oct-14 11:25N 30°01' W 093°46'0 0.0
2017-Oct-14 10:50N 30°01' W 093°46'0 0.0
2017-Oct-14 09:55N 30°01' W 093°46'0 0.0
2017-Oct-14 09:29N 30°01' W 093°46'3 1.6
2017-Oct-14 07:31N 30°03' W 093°43'0 4.9
2017-Oct-14 07:30N 30°03' W 093°43'2 4.7
2017-Oct-14 07:00N 30°04' W 093°40'2 4.5
2017-Oct-14 06:30N 30°04' W 093°38'2 4.5
2017-Oct-14 06:00N 30°04' W 093°35'2 4.3
2017-Oct-14 05:30N 30°04' W 093°33'2 4.1
2017-Oct-14 05:00N 30°04' W 093°30'2 3.8
2017-Oct-14 04:30N 30°04' W 093°28'2 4.2
2017-Oct-14 04:00N 30°04' W 093°26'2 4.2
2017-Oct-14 03:30N 30°04' W 093°23'2 3.2
2017-Oct-14 03:00N 30°04' W 093°21'0 0.0
2017-Oct-14 02:30N 30°04' W 093°21'1 2.6
2017-Oct-14 01:59N 30°05' W 093°20'1 2.1
2017-Oct-14 01:30N 30°04' W 093°21'1 1.0
2017-Oct-14 00:58N 30°04' W 093°22'0 0.3
2017-Oct-14 00:28N 30°04' W 093°22'1 3.2
2017-Oct-14 00:01N 30°04' W 093°24'3 6.5
2017-Oct-13 23:31N 30°04' W 093°27'3 6.5
2017-Oct-13 23:01N 30°04' W 093°31'3 6.4
2017-Oct-13 22:30N 30°04' W 093°35'3 6.2
2017-Oct-13 21:59N 30°04' W 093°38'66 4.3
2017-Oct-13 06:36N 29°27' W 094°41'1 5.4
2017-Oct-13 06:30N 29°27' W 094°42'4 5.3
2017-Oct-13 05:46N 29°24' W 094°45'1 5.7
2017-Oct-13 05:30N 29°23' W 094°46'2 1.8
2017-Oct-13 04:12N 29°24' W 094°49'7 4.4
2017-Oct-13 02:36N 29°30' W 094°52'1 5.1
2017-Oct-13 02:29N 29°30' W 094°53'3 5.2
2017-Oct-13 02:00N 29°32' W 094°54'3 5.1
2017-Oct-13 01:30N 29°35' W 094°56'3 5.3
2017-Oct-13 01:00N 29°37' W 094°57'3 5.8
2017-Oct-13 00:30N 29°40' W 094°58'3 5.9
2017-Oct-13 00:00N 29°42' W 095°00'3 5.0
2017-Oct-12 23:29N 29°44' W 095°03'3 5.0
2017-Oct-12 22:49N 29°47' W 095°05'0 0.4
2017-Oct-12 21:47N 29°47' W 095°04'0 0.2
2017-Oct-12 18:51N 29°47' W 095°04'1 0.9
2017-Oct-12 17:31N 29°46' W 095°05'1 2.8
2017-Oct-12 17:07N 29°46' W 095°05'1 4.2
2017-Oct-12 16:58N 29°46' W 095°05'1 2.1
2017-Oct-12 16:29N 29°47' W 095°05'0 0.1
2017-Oct-12 15:44N 29°47' W 095°04'0 0.2
2017-Oct-12 15:25N 29°47' W 095°04'0 0.1
2017-Oct-12 15:00N 29°47' W 095°04'1 2.2
2017-Oct-12 14:27N 29°46' W 095°04'2 4.5
2017-Oct-12 14:00N 29°44' W 095°03'2 4.0
2017-Oct-12 13:30N 29°43' W 095°01'2 4.1
2017-Oct-12 13:00N 29°42' W 094°59'2 4.7
2017-Oct-12 12:30N 29°39' W 094°58'3 5.1
2017-Oct-12 12:00N 29°37' W 094°57'2 4.9
2017-Oct-12 11:30N 29°35' W 094°56'2 5.0
2017-Oct-12 11:00N 29°33' W 094°54'3 5.1
2017-Oct-12 10:30N 29°31' W 094°53'73 2.1
2017-Oct-10 23:53N 30°04' W 093°38'2 5.6
2017-Oct-10 23:30N 30°04' W 093°40'71 5.3
2017-Oct-10 10:04N 29°30' W 094°52'0 7.5
2017-Oct-10 10:00N 29°30' W 094°52'4 7.4
2017-Oct-10 09:30N 29°33' W 094°55'4 7.2
2017-Oct-10 09:01N 29°36' W 094°57'4 7.4
2017-Oct-10 08:30N 29°40' W 094°58'4 7.0
2017-Oct-10 08:00N 29°42' W 095°01'4 6.9
2017-Oct-10 07:23N 29°46' W 095°04'1 0.5
2017-Oct-10 04:45N 29°47' W 095°04'1 3.6
2017-Oct-10 04:27N 29°46' W 095°05'3 6.0
2017-Oct-10 04:00N 29°44' W 095°03'3 5.7
2017-Oct-10 03:30N 29°42' W 095°00'3 6.7
2017-Oct-10 03:00N 29°39' W 094°58'3 6.5
2017-Oct-10 02:30N 29°36' W 094°57'3 7.0
2017-Oct-10 02:00N 29°33' W 094°55'4 7.2
2017-Oct-10 01:30N 29°30' W 094°52'  

Dump ship's entire track history